sensor_id;sensor_type;location;lat;lon;timestamp;temperature;humidity
1594;DHT22;790;47.000;16.084;2023-06-14T00:01:30;15.80;99.90
1594;DHT22;790;47.000;16.084;2023-06-14T00:04:18;15.90;99.90
1594;DHT22;790;47.000;16.084;2023-06-14T00:07:05;16.00;99.90
1594;DHT22;790;47.000;16.084;2023-06-14T00:09:52;16.00;99.90
1594;DHT22;790;47.000;16.084;2023-06-14T00:12:40;16.10;99.90
1594;DHT22;790;47.000;16.084;2023-06-14T00:15:27;16.10;99.90
1594;DHT22;790;47.000;16.084;2023-06-14T00:18:13;16.10;99.90
1594;DHT22;790;47.000;16.084;2023-06-14T00:20:59;16.10;99.90
1594;DHT22;790;47.000;16.084;2023-06-14T00:23:46;16.00;99.90
1594;DHT22;790;47.000;16.084;2023-06-14T00:26:32;16.00;99.90
1594;DHT22;790;47.000;16.084;2023-06-14T00:29:17;16.00;99.90
1594;DHT22;790;47.000;16.084;2023-06-14T00:32:06;15.80;99.90
1594;DHT22;790;47.000;16.084;2023-06-14T00:34:52;15.70;99.90
1594;DHT22;790;47.000;16.084;2023-06-14T00:37:37;15.70;99.90
1594;DHT22;790;47.000;16.084;2023-06-14T00:40:23;15.70;99.90
1594;DHT22;790;47.000;16.084;2023-06-14T00:43:08;15.70;99.90
1594;DHT22;790;47.000;16.084;2023-06-14T00:45:54;15.70;99.90
1594;DHT22;790;47.000;16.084;2023-06-14T00:48:41;15.70;99.90
1594;DHT22;790;47.000;16.084;2023-06-14T00:51:27;15.80;99.90
1594;DHT22;790;47.000;16.084;2023-06-14T00:54:13;15.80;99.90
1594;DHT22;790;47.000;16.084;2023-06-14T00:56:58;15.80;99.90
1594;DHT22;790;47.000;16.084;2023-06-14T00:59:45;15.80;99.90
1594;DHT22;790;47.000;16.084;2023-06-14T01:02:31;15.80;99.90
1594;DHT22;790;47.000;16.084;2023-06-14T01:05:18;15.70;99.90
1594;DHT22;790;47.000;16.084;2023-06-14T01:08:14;15.60;99.90
1594;DHT22;790;47.000;16.084;2023-06-14T01:11:10;15.60;99.90
1594;DHT22;790;47.000;16.084;2023-06-14T01:13:56;15.60;99.90
1594;DHT22;790;47.000;16.084;2023-06-14T01:16:42;15.60;99.90
1594;DHT22;790;47.000;16.084;2023-06-14T01:19:29;15.60;99.90
1594;DHT22;790;47.000;16.084;2023-06-14T01:22:18;15.50;99.90
1594;DHT22;790;47.000;16.084;2023-06-14T01:25:06;15.60;99.90
1594;DHT22;790;47.000;16.084;2023-06-14T01:27:53;15.70;99.90
1594;DHT22;790;47.000;16.084;2023-06-14T01:30:42;15.70;99.90
1594;DHT22;790;47.000;16.084;2023-06-14T01:33:29;15.70;99.90
1594;DHT22;790;47.000;16.084;2023-06-14T01:36:17;15.70;99.90
1594;DHT22;790;47.000;16.084;2023-06-14T01:39:04;15.70;99.90
1594;DHT22;790;47.000;16.084;2023-06-14T01:41:52;15.80;99.90
1594;DHT22;790;47.000;16.084;2023-06-14T01:44:38;15.70;99.90
1594;DHT22;790;47.000;16.084;2023-06-14T01:47:25;15.60;99.90
1594;DHT22;790;47.000;16.084;2023-06-14T01:50:13;15.70;99.90
1594;DHT22;790;47.000;16.084;2023-06-14T01:52:58;15.80;99.90
1594;DHT22;790;47.000;16.084;2023-06-14T01:55:44;15.80;99.90
1594;DHT22;790;47.000;16.084;2023-06-14T01:58:34;15.80;99.90
1594;DHT22;790;47.000;16.084;2023-06-14T02:01:20;15.90;99.90
1594;DHT22;790;47.000;16.084;2023-06-14T02:04:06;15.90;99.90
1594;DHT22;790;47.000;16.084;2023-06-14T02:06:52;15.90;99.90
1594;DHT22;790;47.000;16.084;2023-06-14T02:09:37;16.00;99.90
1594;DHT22;790;47.000;16.084;2023-06-14T02:12:23;16.00;99.90
1594;DHT22;790;47.000;16.084;2023-06-14T02:15:10;16.00;99.90
1594;DHT22;790;47.000;16.084;2023-06-14T02:18:01;16.00;99.90
1594;DHT22;790;47.000;16.084;2023-06-14T02:20:47;15.90;99.90
1594;DHT22;790;47.000;16.084;2023-06-14T02:23:33;15.90;99.90
1594;DHT22;790;47.000;16.084;2023-06-14T02:26:18;15.90;99.90
1594;DHT22;790;47.000;16.084;2023-06-14T02:29:04;15.70;99.90
1594;DHT22;790;47.000;16.084;2023-06-14T02:31:54;15.70;99.90
1594;DHT22;790;47.000;16.084;2023-06-14T02:34:40;15.70;99.90
1594;DHT22;790;47.000;16.084;2023-06-14T02:37:25;15.70;99.90
1594;DHT22;790;47.000;16.084;2023-06-14T02:40:12;15.60;99.90
1594;DHT22;790;47.000;16.084;2023-06-14T02:42:57;15.70;99.90
1594;DHT22;790;47.000;16.084;2023-06-14T02:45:43;15.70;99.90
1594;DHT22;790;47.000;16.084;2023-06-14T02:48:30;15.70;99.90
1594;DHT22;790;47.000;16.084;2023-06-14T02:51:16;15.70;99.90
1594;DHT22;790;47.000;16.084;2023-06-14T02:54:02;15.70;99.90
1594;DHT22;790;47.000;16.084;2023-06-14T02:56:47;15.60;99.90
1594;DHT22;790;47.000;16.084;2023-06-14T02:59:34;15.40;99.90
1594;DHT22;790;47.000;16.084;2023-06-14T03:02:20;15.40;99.90
1594;DHT22;790;47.000;16.084;2023-06-14T03:05:08;15.50;99.90
1594;DHT22;790;47.000;16.084;2023-06-14T03:07:54;15.60;99.90
1594;DHT22;790;47.000;16.084;2023-06-14T03:10:40;15.70;99.90
1594;DHT22;790;47.000;16.084;2023-06-14T03:13:26;15.80;99.90
1594;DHT22;790;47.000;16.084;2023-06-14T03:16:16;15.90;99.90
1594;DHT22;790;47.000;16.084;2023-06-14T03:19:03;16.00;99.90
1594;DHT22;790;47.000;16.084;2023-06-14T03:21:51;16.10;99.90
1594;DHT22;790;47.000;16.084;2023-06-14T03:24:36;16.10;99.90
1594;DHT22;790;47.000;16.084;2023-06-14T03:27:22;16.00;99.90
1594;DHT22;790;47.000;16.084;2023-06-14T03:30:08;15.90;99.90
1594;DHT22;790;47.000;16.084;2023-06-14T03:32:54;15.90;99.90
1594;DHT22;790;47.000;16.084;2023-06-14T03:35:40;16.00;99.90
1594;DHT22;790;47.000;16.084;2023-06-14T03:38:27;16.00;99.90
1594;DHT22;790;47.000;16.084;2023-06-14T03:41:13;16.00;99.90
1594;DHT22;790;47.000;16.084;2023-06-14T03:43:59;16.00;99.90
1594;DHT22;790;47.000;16.084;2023-06-14T03:46:44;15.80;99.90
1594;DHT22;790;47.000;16.084;2023-06-14T03:49:30;15.90;99.90
1594;DHT22;790;47.000;16.084;2023-06-14T03:52:16;15.80;99.90
1594;DHT22;790;47.000;16.084;2023-06-14T03:55:04;15.80;99.90
1594;DHT22;790;47.000;16.084;2023-06-14T03:57:50;15.80;99.90
1594;DHT22;790;47.000;16.084;2023-06-14T04:00:35;15.80;99.90
1594;DHT22;790;47.000;16.084;2023-06-14T04:03:21;15.70;99.90
1594;DHT22;790;47.000;16.084;2023-06-14T04:06:13;15.70;99.90
1594;DHT22;790;47.000;16.084;2023-06-14T04:09:03;15.70;99.90
1594;DHT22;790;47.000;16.084;2023-06-14T04:11:50;15.60;99.90
1594;DHT22;790;47.000;16.084;2023-06-14T04:14:36;15.60;99.90
1594;DHT22;790;47.000;16.084;2023-06-14T04:17:21;15.50;99.90
1594;DHT22;790;47.000;16.084;2023-06-14T04:20:07;15.60;99.90
1594;DHT22;790;47.000;16.084;2023-06-14T04:22:56;15.60;99.90
1594;DHT22;790;47.000;16.084;2023-06-14T04:25:42;15.60;99.90
1594;DHT22;790;47.000;16.084;2023-06-14T04:28:30;15.60;99.90
1594;DHT22;790;47.000;16.084;2023-06-14T04:31:16;15.60;99.90
1594;DHT22;790;47.000;16.084;2023-06-14T04:34:02;15.80;99.90
1594;DHT22;790;47.000;16.084;2023-06-14T04:36:50;15.90;99.90
1594;DHT22;790;47.000;16.084;2023-06-14T04:39:39;16.00;99.90
1594;DHT22;790;47.000;16.084;2023-06-14T04:42:26;16.20;99.90
1594;DHT22;790;47.000;16.084;2023-06-14T04:45:18;16.30;99.90
1594;DHT22;790;47.000;16.084;2023-06-14T04:48:04;16.30;99.90
1594;DHT22;790;47.000;16.084;2023-06-14T04:50:51;16.40;99.90
1594;DHT22;790;47.000;16.084;2023-06-14T04:53:37;16.40;99.90
1594;DHT22;790;47.000;16.084;2023-06-14T04:56:23;16.50;99.90
1594;DHT22;790;47.000;16.084;2023-06-14T04:59:09;16.50;99.90
1594;DHT22;790;47.000;16.084;2023-06-14T05:01:57;16.60;99.90
1594;DHT22;790;47.000;16.084;2023-06-14T05:04:44;16.70;99.90
1594;DHT22;790;47.000;16.084;2023-06-14T05:07:31;16.80;99.90
1594;DHT22;790;47.000;16.084;2023-06-14T05:10:18;16.90;99.90
1594;DHT22;790;47.000;16.084;2023-06-14T05:13:04;17.00;99.90
1594;DHT22;790;47.000;16.084;2023-06-14T05:15:49;17.00;99.90
1594;DHT22;790;47.000;16.084;2023-06-14T05:18:36;17.00;99.90
1594;DHT22;790;47.000;16.084;2023-06-14T05:21:22;17.00;99.90
1594;DHT22;790;47.000;16.084;2023-06-14T05:24:07;17.00;99.90
1594;DHT22;790;47.000;16.084;2023-06-14T05:26:53;17.00;99.90
1594;DHT22;790;47.000;16.084;2023-06-14T05:29:39;17.10;99.90
1594;DHT22;790;47.000;16.084;2023-06-14T05:32:25;17.20;99.90
1594;DHT22;790;47.000;16.084;2023-06-14T05:35:13;17.20;99.90
1594;DHT22;790;47.000;16.084;2023-06-14T05:37:59;17.20;99.90
1594;DHT22;790;47.000;16.084;2023-06-14T05:40:44;17.20;99.90
1594;DHT22;790;47.000;16.084;2023-06-14T05:43:29;17.20;99.90
1594;DHT22;790;47.000;16.084;2023-06-14T05:46:16;17.30;99.90
1594;DHT22;790;47.000;16.084;2023-06-14T05:49:06;17.30;99.90
1594;DHT22;790;47.000;16.084;2023-06-14T05:51:53;17.30;99.90
1594;DHT22;790;47.000;16.084;2023-06-14T05:54:38;17.40;99.90
1594;DHT22;790;47.000;16.084;2023-06-14T05:57:25;17.40;99.90
1594;DHT22;790;47.000;16.084;2023-06-14T06:00:12;17.50;99.90
1594;DHT22;790;47.000;16.084;2023-06-14T06:02:58;17.40;99.90
1594;DHT22;790;47.000;16.084;2023-06-14T06:05:45;17.50;99.90
1594;DHT22;790;47.000;16.084;2023-06-14T06:08:32;17.40;99.90
1594;DHT22;790;47.000;16.084;2023-06-14T06:11:18;17.40;99.90
1594;DHT22;790;47.000;16.084;2023-06-14T06:14:04;17.50;99.90
1594;DHT22;790;47.000;16.084;2023-06-14T06:16:50;17.50;99.90
1594;DHT22;790;47.000;16.084;2023-06-14T06:19:37;17.50;99.90
1594;DHT22;790;47.000;16.084;2023-06-14T06:22:22;17.60;99.90
1594;DHT22;790;47.000;16.084;2023-06-14T06:25:10;17.60;99.90
1594;DHT22;790;47.000;16.084;2023-06-14T06:27:56;17.70;99.90
1594;DHT22;790;47.000;16.084;2023-06-14T06:30:42;17.70;99.90
1594;DHT22;790;47.000;16.084;2023-06-14T06:33:28;17.70;99.90
1594;DHT22;790;47.000;16.084;2023-06-14T06:36:14;17.80;99.90
1594;DHT22;790;47.000;16.084;2023-06-14T06:38:59;17.80;99.90
1594;DHT22;790;47.000;16.084;2023-06-14T06:41:47;17.80;99.90
1594;DHT22;790;47.000;16.084;2023-06-14T06:44:32;17.80;99.90
1594;DHT22;790;47.000;16.084;2023-06-14T06:47:18;17.90;99.90
1594;DHT22;790;47.000;16.084;2023-06-14T06:50:04;17.80;99.90
1594;DHT22;790;47.000;16.084;2023-06-14T06:52:50;17.80;99.90
1594;DHT22;790;47.000;16.084;2023-06-14T06:55:38;17.80;99.90
1594;DHT22;790;47.000;16.084;2023-06-14T06:58:25;17.80;99.90
1594;DHT22;790;47.000;16.084;2023-06-14T07:01:11;17.70;99.90
1594;DHT22;790;47.000;16.084;2023-06-14T07:03:57;17.60;99.90
1594;DHT22;790;47.000;16.084;2023-06-14T07:06:42;17.60;99.90
1594;DHT22;790;47.000;16.084;2023-06-14T07:09:28;17.50;99.90
1594;DHT22;790;47.000;16.084;2023-06-14T07:12:13;17.50;99.90
1594;DHT22;790;47.000;16.084;2023-06-14T07:15:00;17.50;99.90
1594;DHT22;790;47.000;16.084;2023-06-14T07:17:46;17.50;99.90
1594;DHT22;790;47.000;16.084;2023-06-14T07:20:32;17.50;99.90
1594;DHT22;790;47.000;16.084;2023-06-14T07:23:18;17.40;99.90
1594;DHT22;790;47.000;16.084;2023-06-14T07:26:04;17.30;99.90
1594;DHT22;790;47.000;16.084;2023-06-14T07:28:51;17.10;99.90
1594;DHT22;790;47.000;16.084;2023-06-14T07:31:38;17.10;99.90
1594;DHT22;790;47.000;16.084;2023-06-14T07:34:24;17.00;99.90
1594;DHT22;790;47.000;16.084;2023-06-14T07:37:10;16.90;99.90
1594;DHT22;790;47.000;16.084;2023-06-14T07:39:56;16.90;99.90
1594;DHT22;790;47.000;16.084;2023-06-14T07:42:45;16.90;99.90
1594;DHT22;790;47.000;16.084;2023-06-14T07:45:35;17.00;99.90
1594;DHT22;790;47.000;16.084;2023-06-14T07:48:28;17.00;99.90
1594;DHT22;790;47.000;16.084;2023-06-14T07:51:14;17.00;99.90
1594;DHT22;790;47.000;16.084;2023-06-14T07:54:01;17.10;99.90
1594;DHT22;790;47.000;16.084;2023-06-14T07:56:47;17.10;99.90
1594;DHT22;790;47.000;16.084;2023-06-14T07:59:32;17.20;99.90
1594;DHT22;790;47.000;16.084;2023-06-14T08:02:19;17.20;99.90
1594;DHT22;790;47.000;16.084;2023-06-14T08:05:08;17.20;99.90
1594;DHT22;790;47.000;16.084;2023-06-14T08:07:54;17.20;99.90
1594;DHT22;790;47.000;16.084;2023-06-14T08:10:40;17.30;99.90
1594;DHT22;790;47.000;16.084;2023-06-14T08:13:27;17.30;99.90
1594;DHT22;790;47.000;16.084;2023-06-14T08:16:12;17.40;99.90
1594;DHT22;790;47.000;16.084;2023-06-14T08:18:58;17.60;99.90
1594;DHT22;790;47.000;16.084;2023-06-14T08:21:46;17.70;99.90
1594;DHT22;790;47.000;16.084;2023-06-14T08:24:32;17.90;99.90
1594;DHT22;790;47.000;16.084;2023-06-14T08:27:18;18.00;99.90
1594;DHT22;790;47.000;16.084;2023-06-14T08:30:06;18.10;99.90
1594;DHT22;790;47.000;16.084;2023-06-14T08:32:55;18.10;99.90
1594;DHT22;790;47.000;16.084;2023-06-14T08:35:42;17.90;99.90
1594;DHT22;790;47.000;16.084;2023-06-14T08:41:39;17.50;99.90
1594;DHT22;790;47.000;16.084;2023-06-14T08:44:28;17.30;99.90
1594;DHT22;790;47.000;16.084;2023-06-14T08:47:15;17.40;99.90
1594;DHT22;790;47.000;16.084;2023-06-14T08:50:05;17.50;99.90
1594;DHT22;790;47.000;16.084;2023-06-14T08:52:55;17.50;99.90
1594;DHT22;790;47.000;16.084;2023-06-14T08:55:57;17.60;99.90
1594;DHT22;790;47.000;16.084;2023-06-14T08:58:50;17.80;99.90
1594;DHT22;790;47.000;16.084;2023-06-14T09:01:40;18.00;99.90
1594;DHT22;790;47.000;16.084;2023-06-14T09:04:36;18.10;99.90
1594;DHT22;790;47.000;16.084;2023-06-14T09:07:31;18.20;99.90
1594;DHT22;790;47.000;16.084;2023-06-14T09:10:17;18.30;99.90
1594;DHT22;790;47.000;16.084;2023-06-14T09:13:05;18.40;99.90
1594;DHT22;790;47.000;16.084;2023-06-14T09:15:51;18.30;99.90
1594;DHT22;790;47.000;16.084;2023-06-14T09:18:40;18.30;99.90
1594;DHT22;790;47.000;16.084;2023-06-14T09:21:34;18.20;99.90
1594;DHT22;790;47.000;16.084;2023-06-14T09:24:24;18.20;99.90
1594;DHT22;790;47.000;16.084;2023-06-14T09:27:16;18.40;99.90
1594;DHT22;790;47.000;16.084;2023-06-14T09:30:08;18.40;99.90
1594;DHT22;790;47.000;16.084;2023-06-14T09:32:57;18.40;99.90
1594;DHT22;790;47.000;16.084;2023-06-14T09:35:45;18.40;99.90
1594;DHT22;790;47.000;16.084;2023-06-14T09:38:35;18.50;99.90
1594;DHT22;790;47.000;16.084;2023-06-14T09:41:32;18.50;99.90
1594;DHT22;790;47.000;16.084;2023-06-14T09:44:18;18.50;99.90
1594;DHT22;790;47.000;16.084;2023-06-14T09:47:07;18.60;99.90
1594;DHT22;790;47.000;16.084;2023-06-14T09:49:55;18.70;99.90
1594;DHT22;790;47.000;16.084;2023-06-14T09:52:43;18.70;99.90
1594;DHT22;790;47.000;16.084;2023-06-14T09:55:31;18.70;99.90
1594;DHT22;790;47.000;16.084;2023-06-14T09:58:26;18.60;99.90
1594;DHT22;790;47.000;16.084;2023-06-14T10:01:14;18.60;99.90
1594;DHT22;790;47.000;16.084;2023-06-14T10:04:03;18.60;99.90
1594;DHT22;790;47.000;16.084;2023-06-14T10:06:50;18.60;99.90
1594;DHT22;790;47.000;16.084;2023-06-14T10:09:38;18.60;99.90
1594;DHT22;790;47.000;16.084;2023-06-14T10:12:28;18.60;99.90
1594;DHT22;790;47.000;16.084;2023-06-14T10:15:19;18.60;99.90
1594;DHT22;790;47.000;16.084;2023-06-14T10:18:10;18.60;99.90
1594;DHT22;790;47.000;16.084;2023-06-14T10:21:08;18.60;99.90
1594;DHT22;790;47.000;16.084;2023-06-14T10:23:59;18.60;99.90
1594;DHT22;790;47.000;16.084;2023-06-14T10:26:51;18.50;99.90
1594;DHT22;790;47.000;16.084;2023-06-14T10:30:02;18.50;99.90
1594;DHT22;790;47.000;16.084;2023-06-14T10:33:03;18.50;99.90
1594;DHT22;790;47.000;16.084;2023-06-14T10:35:49;18.50;99.90
1594;DHT22;790;47.000;16.084;2023-06-14T10:38:38;18.60;99.90
1594;DHT22;790;47.000;16.084;2023-06-14T10:41:25;18.70;99.90
1594;DHT22;790;47.000;16.084;2023-06-14T10:44:40;18.70;99.90
1594;DHT22;790;47.000;16.084;2023-06-14T10:47:28;18.70;99.90
1594;DHT22;790;47.000;16.084;2023-06-14T10:50:14;18.60;99.90
1594;DHT22;790;47.000;16.084;2023-06-14T10:53:21;18.60;99.90
1594;DHT22;790;47.000;16.084;2023-06-14T10:56:09;18.60;99.90
1594;DHT22;790;47.000;16.084;2023-06-14T10:59:08;18.70;99.90
1594;DHT22;790;47.000;16.084;2023-06-14T11:02:00;18.70;99.90
1594;DHT22;790;47.000;16.084;2023-06-14T11:04:52;18.80;99.90
1594;DHT22;790;47.000;16.084;2023-06-14T11:07:47;18.70;99.90
1594;DHT22;790;47.000;16.084;2023-06-14T11:10:36;18.70;99.90
1594;DHT22;790;47.000;16.084;2023-06-14T11:13:25;18.60;99.90
1594;DHT22;790;47.000;16.084;2023-06-14T11:16:12;18.70;99.90
1594;DHT22;790;47.000;16.084;2023-06-14T11:18:58;18.80;99.90
1594;DHT22;790;47.000;16.084;2023-06-14T11:21:47;18.90;99.90
1594;DHT22;790;47.000;16.084;2023-06-14T11:24:33;18.90;99.90
1594;DHT22;790;47.000;16.084;2023-06-14T11:27:19;19.00;99.90
1594;DHT22;790;47.000;16.084;2023-06-14T11:30:10;19.00;99.90
1594;DHT22;790;47.000;16.084;2023-06-14T11:32:56;19.00;99.90
1594;DHT22;790;47.000;16.084;2023-06-14T11:35:42;19.10;99.90
1594;DHT22;790;47.000;16.084;2023-06-14T11:38:28;19.10;99.90
1594;DHT22;790;47.000;16.084;2023-06-14T11:41:14;19.20;99.90
1594;DHT22;790;47.000;16.084;2023-06-14T11:44:00;19.20;99.90
1594;DHT22;790;47.000;16.084;2023-06-14T11:46:48;19.40;99.90
1594;DHT22;790;47.000;16.084;2023-06-14T11:49:35;19.50;99.90
1594;DHT22;790;47.000;16.084;2023-06-14T11:52:21;19.70;99.90
1594;DHT22;790;47.000;16.084;2023-06-14T11:55:08;19.80;99.90
1594;DHT22;790;47.000;16.084;2023-06-14T11:57:55;19.60;99.90
1594;DHT22;790;47.000;16.084;2023-06-14T12:00:41;19.70;99.90
1594;DHT22;790;47.000;16.084;2023-06-14T12:03:29;19.90;99.90
1594;DHT22;790;47.000;16.084;2023-06-14T12:06:14;20.00;99.90
1594;DHT22;790;47.000;16.084;2023-06-14T12:09:03;19.80;99.90
1594;DHT22;790;47.000;16.084;2023-06-14T12:11:51;19.90;99.90
1594;DHT22;790;47.000;16.084;2023-06-14T12:14:44;20.10;99.90
1594;DHT22;790;47.000;16.084;2023-06-14T12:17:33;20.00;99.90
1594;DHT22;790;47.000;16.084;2023-06-14T12:20:20;19.90;99.90
1594;DHT22;790;47.000;16.084;2023-06-14T12:23:06;20.00;99.90
1594;DHT22;790;47.000;16.084;2023-06-14T12:25:53;20.10;99.90
1594;DHT22;790;47.000;16.084;2023-06-14T12:28:40;20.20;99.90
1594;DHT22;790;47.000;16.084;2023-06-14T12:31:26;20.20;99.90
1594;DHT22;790;47.000;16.084;2023-06-14T12:34:14;20.50;99.90
1594;DHT22;790;47.000;16.084;2023-06-14T12:37:01;20.70;99.90
1594;DHT22;790;47.000;16.084;2023-06-14T12:39:48;21.00;99.90
1594;DHT22;790;47.000;16.084;2023-06-14T12:42:34;21.20;99.90
1594;DHT22;790;47.000;16.084;2023-06-14T12:45:20;21.30;99.90
1594;DHT22;790;47.000;16.084;2023-06-14T12:48:07;21.50;99.90
1594;DHT22;790;47.000;16.084;2023-06-14T12:50:53;21.40;99.90
1594;DHT22;790;47.000;16.084;2023-06-14T12:53:40;21.40;99.90
1594;DHT22;790;47.000;16.084;2023-06-14T12:56:26;21.30;99.90
1594;DHT22;790;47.000;16.084;2023-06-14T12:59:12;21.20;99.90
1594;DHT22;790;47.000;16.084;2023-06-14T13:01:57;21.10;99.90
1594;DHT22;790;47.000;16.084;2023-06-14T13:04:44;21.30;99.90
1594;DHT22;790;47.000;16.084;2023-06-14T13:07:29;21.40;99.90
1594;DHT22;790;47.000;16.084;2023-06-14T13:10:17;21.50;99.90
1594;DHT22;790;47.000;16.084;2023-06-14T13:13:03;21.60;99.90
1594;DHT22;790;47.000;16.084;2023-06-14T13:15:48;21.70;99.90
1594;DHT22;790;47.000;16.084;2023-06-14T13:18:35;21.90;99.90
1594;DHT22;790;47.000;16.084;2023-06-14T13:21:20;21.60;99.90
1594;DHT22;790;47.000;16.084;2023-06-14T13:24:06;21.50;99.90
1594;DHT22;790;47.000;16.084;2023-06-14T13:26:53;21.60;99.90
1594;DHT22;790;47.000;16.084;2023-06-14T13:29:39;21.50;99.90
1594;DHT22;790;47.000;16.084;2023-06-14T13:32:24;21.50;99.90
1594;DHT22;790;47.000;16.084;2023-06-14T13:35:10;21.80;99.90
1594;DHT22;790;47.000;16.084;2023-06-14T13:37:55;22.00;99.90
1594;DHT22;790;47.000;16.084;2023-06-14T13:40:41;22.20;99.90
1594;DHT22;790;47.000;16.084;2023-06-14T13:43:28;22.00;99.90
1594;DHT22;790;47.000;16.084;2023-06-14T13:46:14;22.00;99.90
1594;DHT22;790;47.000;16.084;2023-06-14T13:48:59;21.90;99.90
1594;DHT22;790;47.000;16.084;2023-06-14T13:51:46;22.00;99.90
1594;DHT22;790;47.000;16.084;2023-06-14T13:54:31;22.20;99.90
1594;DHT22;790;47.000;16.084;2023-06-14T13:57:18;22.40;99.90
1594;DHT22;790;47.000;16.084;2023-06-14T14:00:06;22.60;99.90
1594;DHT22;790;47.000;16.084;2023-06-14T14:02:53;22.70;99.90
1594;DHT22;790;47.000;16.084;2023-06-14T14:05:39;22.70;99.90
1594;DHT22;790;47.000;16.084;2023-06-14T14:08:24;22.80;99.90
1594;DHT22;790;47.000;16.084;2023-06-14T14:11:10;22.90;99.90
1594;DHT22;790;47.000;16.084;2023-06-14T14:13:56;23.10;99.90
1594;DHT22;790;47.000;16.084;2023-06-14T14:16:43;23.20;99.90
1594;DHT22;790;47.000;16.084;2023-06-14T14:19:29;23.20;99.90
1594;DHT22;790;47.000;16.084;2023-06-14T14:22:15;23.10;99.90
1594;DHT22;790;47.000;16.084;2023-06-14T14:25:02;22.90;99.90
1594;DHT22;790;47.000;16.084;2023-06-14T14:27:48;22.90;99.90
1594;DHT22;790;47.000;16.084;2023-06-14T14:30:34;22.90;99.90
1594;DHT22;790;47.000;16.084;2023-06-14T14:33:25;23.00;99.90
1594;DHT22;790;47.000;16.084;2023-06-14T14:36:11;22.80;99.90
1594;DHT22;790;47.000;16.084;2023-06-14T14:38:58;22.60;99.90
1594;DHT22;790;47.000;16.084;2023-06-14T14:41:43;22.40;99.90
1594;DHT22;790;47.000;16.084;2023-06-14T14:44:29;22.40;99.90
1594;DHT22;790;47.000;16.084;2023-06-14T14:47:14;22.50;99.90
1594;DHT22;790;47.000;16.084;2023-06-14T14:50:02;22.70;99.90
1594;DHT22;790;47.000;16.084;2023-06-14T14:52:47;22.70;99.90
1594;DHT22;790;47.000;16.084;2023-06-14T14:55:33;22.80;99.90
1594;DHT22;790;47.000;16.084;2023-06-14T14:58:20;22.90;99.90
1594;DHT22;790;47.000;16.084;2023-06-14T15:01:06;23.20;99.90
1594;DHT22;790;47.000;16.084;2023-06-14T15:03:51;23.40;99.90
1594;DHT22;790;47.000;16.084;2023-06-14T15:06:39;23.30;99.90
1594;DHT22;790;47.000;16.084;2023-06-14T15:09:25;23.10;99.90
1594;DHT22;790;47.000;16.084;2023-06-14T15:12:11;22.80;99.90
1594;DHT22;790;47.000;16.084;2023-06-14T15:14:56;22.80;99.90
1594;DHT22;790;47.000;16.084;2023-06-14T15:17:42;22.80;99.90
1594;DHT22;790;47.000;16.084;2023-06-14T15:20:27;22.70;99.90
1594;DHT22;790;47.000;16.084;2023-06-14T15:23:15;22.30;99.90
1594;DHT22;790;47.000;16.084;2023-06-14T15:26:04;22.10;99.90
1594;DHT22;790;47.000;16.084;2023-06-14T15:28:51;22.00;99.90
1594;DHT22;790;47.000;16.084;2023-06-14T15:31:36;21.80;99.90
1594;DHT22;790;47.000;16.084;2023-06-14T15:34:22;21.70;99.90
1594;DHT22;790;47.000;16.084;2023-06-14T15:37:08;21.70;99.90
1594;DHT22;790;47.000;16.084;2023-06-14T15:39:55;21.70;99.90
1594;DHT22;790;47.000;16.084;2023-06-14T15:42:41;21.80;99.90
1594;DHT22;790;47.000;16.084;2023-06-14T15:45:28;21.90;99.90
1594;DHT22;790;47.000;16.084;2023-06-14T15:48:14;21.90;99.90
1594;DHT22;790;47.000;16.084;2023-06-14T15:50:59;21.90;99.90
1594;DHT22;790;47.000;16.084;2023-06-14T15:53:44;21.90;99.90
1594;DHT22;790;47.000;16.084;2023-06-14T15:56:32;22.00;99.90
1594;DHT22;790;47.000;16.084;2023-06-14T15:59:18;22.10;99.90
1594;DHT22;790;47.000;16.084;2023-06-14T16:02:03;22.20;99.90
1594;DHT22;790;47.000;16.084;2023-06-14T16:04:49;22.20;99.90
1594;DHT22;790;47.000;16.084;2023-06-14T16:07:34;22.20;99.90
1594;DHT22;790;47.000;16.084;2023-06-14T16:10:20;22.20;99.90
1594;DHT22;790;47.000;16.084;2023-06-14T16:13:07;22.30;99.90
1594;DHT22;790;47.000;16.084;2023-06-14T16:15:53;22.30;99.90
1594;DHT22;790;47.000;16.084;2023-06-14T16:18:39;22.30;99.90
1594;DHT22;790;47.000;16.084;2023-06-14T16:21:25;22.30;99.90
1594;DHT22;790;47.000;16.084;2023-06-14T16:24:11;22.30;99.90
1594;DHT22;790;47.000;16.084;2023-06-14T16:26:59;22.40;99.90
1594;DHT22;790;47.000;16.084;2023-06-14T16:29:46;22.50;99.90
1594;DHT22;790;47.000;16.084;2023-06-14T16:32:32;22.50;99.90
1594;DHT22;790;47.000;16.084;2023-06-14T16:35:18;22.50;99.90
1594;DHT22;790;47.000;16.084;2023-06-14T16:38:03;22.50;99.90
1594;DHT22;790;47.000;16.084;2023-06-14T16:40:49;22.40;99.90
1594;DHT22;790;47.000;16.084;2023-06-14T16:43:35;22.50;99.90
1594;DHT22;790;47.000;16.084;2023-06-14T16:46:30;22.60;99.90
1594;DHT22;790;47.000;16.084;2023-06-14T16:49:16;22.50;99.90
1594;DHT22;790;47.000;16.084;2023-06-14T16:52:02;22.60;99.90
1594;DHT22;790;47.000;16.084;2023-06-14T16:54:47;22.60;99.90
1594;DHT22;790;47.000;16.084;2023-06-14T16:57:33;22.50;99.90
1594;DHT22;790;47.000;16.084;2023-06-14T17:00:20;22.40;99.90
1594;DHT22;790;47.000;16.084;2023-06-14T17:03:07;22.20;99.90
1594;DHT22;790;47.000;16.084;2023-06-14T17:05:55;22.10;99.90
1594;DHT22;790;47.000;16.084;2023-06-14T17:08:41;22.00;99.90
1594;DHT22;790;47.000;16.084;2023-06-14T17:11:26;21.80;99.90
1594;DHT22;790;47.000;16.084;2023-06-14T17:14:12;21.90;99.90
1594;DHT22;790;47.000;16.084;2023-06-14T17:16:58;21.90;99.90
1594;DHT22;790;47.000;16.084;2023-06-14T17:19:46;21.80;99.90
1594;DHT22;790;47.000;16.084;2023-06-14T17:22:31;21.70;99.90
1594;DHT22;790;47.000;16.084;2023-06-14T17:25:17;21.70;99.90
1594;DHT22;790;47.000;16.084;2023-06-14T17:28:09;21.60;99.90
1594;DHT22;790;47.000;16.084;2023-06-14T17:30:55;21.30;99.90
1594;DHT22;790;47.000;16.084;2023-06-14T17:33:42;21.10;99.90
1594;DHT22;790;47.000;16.084;2023-06-14T17:36:29;21.10;99.90
1594;DHT22;790;47.000;16.084;2023-06-14T17:39:15;20.90;99.90
1594;DHT22;790;47.000;16.084;2023-06-14T17:42:01;20.90;99.90
1594;DHT22;790;47.000;16.084;2023-06-14T17:44:47;20.80;99.90
1594;DHT22;790;47.000;16.084;2023-06-14T17:47:35;20.60;99.90
1594;DHT22;790;47.000;16.084;2023-06-14T17:50:21;20.50;99.90
1594;DHT22;790;47.000;16.084;2023-06-14T17:53:08;20.40;99.90
1594;DHT22;790;47.000;16.084;2023-06-14T17:55:54;20.40;99.90
1594;DHT22;790;47.000;16.084;2023-06-14T17:58:40;20.30;99.90
1594;DHT22;790;47.000;16.084;2023-06-14T18:01:25;20.20;99.90
1594;DHT22;790;47.000;16.084;2023-06-14T18:04:11;20.20;99.90
1594;DHT22;790;47.000;16.084;2023-06-14T18:06:57;20.20;99.90
1594;DHT22;790;47.000;16.084;2023-06-14T18:09:46;20.20;99.90
1594;DHT22;790;47.000;16.084;2023-06-14T18:12:31;20.20;99.90
1594;DHT22;790;47.000;16.084;2023-06-14T18:15:18;20.10;99.90